sensor_id;sensor_type;location;lat;lon;timestamp;pressure;altitude;pressure_sealevel;temperature;humidity
63287;BME280;49410;55.708;37.522;2023-02-19T00:01:07;97876.13;;;-7.05;nan
63287;BME280;49410;55.708;37.522;2023-02-19T00:03:34;97881.53;;;-7.06;nan
63287;BME280;49410;55.708;37.522;2023-02-19T00:06:06;97877.59;;;-7.13;nan
63287;BME280;49410;55.708;37.522;2023-02-19T00:08:33;97871.69;;;-7.31;nan
63287;BME280;49410;55.708;37.522;2023-02-19T00:11:00;97839.66;;;-7.56;nan
63287;BME280;49410;55.708;37.522;2023-02-19T00:13:26;97868.34;;;-7.21;nan
63287;BME280;49410;55.708;37.522;2023-02-19T00:15:51;97858.66;;;-7.22;nan
63287;BME280;49410;55.708;37.522;2023-02-19T00:18:17;97842.91;;;-7.38;nan
63287;BME280;49410;55.708;37.522;2023-02-19T00:20:42;97857.31;;;-7.42;nan
63287;BME280;49410;55.708;37.522;2023-02-19T00:23:08;97843.72;;;-7.50;nan
63287;BME280;49410;55.708;37.522;2023-02-19T00:25:35;97841.38;;;-7.42;nan
63287;BME280;49410;55.708;37.522;2023-02-19T00:28:02;97858.63;;;-7.35;nan
63287;BME280;49410;55.708;37.522;2023-02-19T00:30:27;97841.31;;;-7.27;nan
63287;BME280;49410;55.708;37.522;2023-02-19T00:32:53;97828.47;;;-7.34;nan
63287;BME280;49410;55.708;37.522;2023-02-19T00:35:20;97838.22;;;-7.34;nan
63287;BME280;49410;55.708;37.522;2023-02-19T00:37:45;97845.69;;;-7.13;nan
63287;BME280;49410;55.708;37.522;2023-02-19T00:40:11;97833.56;;;-7.30;nan
63287;BME280;49410;55.708;37.522;2023-02-19T00:42:36;97841.22;;;-7.26;nan
63287;BME280;49410;55.708;37.522;2023-02-19T00:45:02;97825.06;;;-7.23;nan
63287;BME280;49410;55.708;37.522;2023-02-19T00:47:27;97824.56;;;-7.28;nan
63287;BME280;49410;55.708;37.522;2023-02-19T00:49:53;97819.75;;;-7.23;nan
63287;BME280;49410;55.708;37.522;2023-02-19T00:52:18;97822.75;;;-7.14;nan
63287;BME280;49410;55.708;37.522;2023-02-19T00:54:44;97822.84;;;-7.16;nan
63287;BME280;49410;55.708;37.522;2023-02-19T00:57:09;97815.75;;;-7.03;nan
63287;BME280;49410;55.708;37.522;2023-02-19T00:59:34;97814.25;;;-7.07;nan
63287;BME280;49410;55.708;37.522;2023-02-19T01:02:01;97812.22;;;-7.03;nan
63287;BME280;49410;55.708;37.522;2023-02-19T01:04:27;97800.53;;;-7.00;nan
63287;BME280;49410;55.708;37.522;2023-02-19T01:06:52;97802.13;;;-7.11;nan
63287;BME280;49410;55.708;37.522;2023-02-19T01:09:18;97798.94;;;-7.03;nan
63287;BME280;49410;55.708;37.522;2023-02-19T01:11:43;97802.66;;;-6.93;nan
63287;BME280;49410;55.708;37.522;2023-02-19T01:14:09;97791.50;;;-7.11;nan
63287;BME280;49410;55.708;37.522;2023-02-19T01:16:35;97759.72;;;-7.25;nan
63287;BME280;49410;55.708;37.522;2023-02-19T01:19:01;97791.72;;;-7.01;nan
63287;BME280;49410;55.708;37.522;2023-02-19T01:21:28;97774.06;;;-7.15;nan
63287;BME280;49410;55.708;37.522;2023-02-19T01:23:56;97792.03;;;-7.06;nan
63287;BME280;49410;55.708;37.522;2023-02-19T01:26:24;97775.34;;;-7.08;nan
63287;BME280;49410;55.708;37.522;2023-02-19T01:28:50;97788.31;;;-7.03;nan
63287;BME280;49410;55.708;37.522;2023-02-19T01:31:19;97772.16;;;-7.13;nan
63287;BME280;49410;55.708;37.522;2023-02-19T01:33:46;97785.78;;;-7.05;nan
63287;BME280;49410;55.708;37.522;2023-02-19T01:36:13;97765.25;;;-7.15;nan
63287;BME280;49410;55.708;37.522;2023-02-19T01:38:39;97770.78;;;-7.19;nan
63287;BME280;49410;55.708;37.522;2023-02-19T01:41:06;97769.47;;;-7.26;nan
63287;BME280;49410;55.708;37.522;2023-02-19T01:43:52;97768.75;;;-7.28;nan
63287;BME280;49410;55.708;37.522;2023-02-19T01:46:19;97776.41;;;-7.23;nan
63287;BME280;49410;55.708;37.522;2023-02-19T01:48:45;97758.78;;;-7.24;nan
63287;BME280;49410;55.708;37.522;2023-02-19T01:51:15;97773.31;;;-7.17;nan
63287;BME280;49410;55.708;37.522;2023-02-19T01:53:45;97775.34;;;-7.21;nan
63287;BME280;49410;55.708;37.522;2023-02-19T01:56:14;97772.50;;;-7.18;nan
63287;BME280;49410;55.708;37.522;2023-02-19T01:58:42;97761.09;;;-7.32;nan
63287;BME280;49410;55.708;37.522;2023-02-19T02:01:08;97758.00;;;-7.26;nan
63287;BME280;49410;55.708;37.522;2023-02-19T02:03:35;97756.00;;;-7.36;nan
63287;BME280;49410;55.708;37.522;2023-02-19T02:06:11;97773.75;;;-7.23;nan
63287;BME280;49410;55.708;37.522;2023-02-19T02:08:40;97767.78;;;-7.27;nan
63287;BME280;49410;55.708;37.522;2023-02-19T02:11:25;97763.84;;;-7.34;nan
63287;BME280;49410;55.708;37.522;2023-02-19T02:13:51;97753.84;;;-7.30;nan
63287;BME280;49410;55.708;37.522;2023-02-19T02:21:45;97766.50;;;-7.21;nan
63287;BME280;49410;55.708;37.522;2023-02-19T02:30:08;97754.81;;;-7.44;nan
63287;BME280;49410;55.708;37.522;2023-02-19T02:38:36;97757.56;;;-7.46;nan
63287;BME280;49410;55.708;37.522;2023-02-19T02:41:03;97757.03;;;-7.51;nan
63287;BME280;49410;55.708;37.522;2023-02-19T02:43:29;97742.78;;;-7.50;nan
63287;BME280;49410;55.708;37.522;2023-02-19T02:45:55;97749.81;;;-7.49;nan
63287;BME280;49410;55.708;37.522;2023-02-19T02:53:33;97758.72;;;-7.50;nan
63287;BME280;49410;55.708;37.522;2023-02-19T02:56:18;97739.06;;;-7.60;nan
63287;BME280;49410;55.708;37.522;2023-02-19T02:58:45;97732.28;;;-7.65;nan
63287;BME280;49410;55.708;37.522;2023-02-19T03:04:08;97735.13;;;-7.55;nan
63287;BME280;49410;55.708;37.522;2023-02-19T03:06:36;97712.94;;;-7.67;nan
63287;BME280;49410;55.708;37.522;2023-02-19T03:09:19;97734.19;;;-7.54;nan
63287;BME280;49410;55.708;37.522;2023-02-19T03:11:49;97746.53;;;-7.40;nan
63287;BME280;49410;55.708;37.522;2023-02-19T03:14:40;97741.63;;;-7.46;nan
63287;BME280;49410;55.708;37.522;2023-02-19T03:17:41;97735.06;;;-7.40;nan
63287;BME280;49410;55.708;37.522;2023-02-19T03:20:29;97723.25;;;-7.49;nan
63287;BME280;49410;55.708;37.522;2023-02-19T03:22:59;97726.84;;;-7.50;nan
63287;BME280;49410;55.708;37.522;2023-02-19T03:25:29;97723.75;;;-7.57;nan
63287;BME280;49410;55.708;37.522;2023-02-19T03:28:16;97725.28;;;-7.40;nan
63287;BME280;49410;55.708;37.522;2023-02-19T03:30:48;97724.63;;;-7.43;nan
63287;BME280;49410;55.708;37.522;2023-02-19T03:33:15;97730.91;;;-7.31;nan
63287;BME280;49410;55.708;37.522;2023-02-19T03:35:50;97711.59;;;-7.34;nan
63287;BME280;49410;55.708;37.522;2023-02-19T03:38:19;97725.94;;;-7.23;nan
63287;BME280;49410;55.708;37.522;2023-02-19T03:43:58;97720.63;;;-7.23;nan
63287;BME280;49410;55.708;37.522;2023-02-19T03:49:20;97712.66;;;-7.23;nan
63287;BME280;49410;55.708;37.522;2023-02-19T03:57:57;97714.88;;;-7.30;nan
63287;BME280;49410;55.708;37.522;2023-02-19T04:00:50;97700.72;;;-7.30;nan
63287;BME280;49410;55.708;37.522;2023-02-19T04:04:07;97708.16;;;-7.23;nan
63287;BME280;49410;55.708;37.522;2023-02-19T04:06:37;97693.31;;;-7.25;nan
63287;BME280;49410;55.708;37.522;2023-02-19T04:09:06;97692.75;;;-7.30;nan
63287;BME280;49410;55.708;37.522;2023-02-19T04:11:35;97702.34;;;-7.28;nan
63287;BME280;49410;55.708;37.522;2023-02-19T04:14:22;97713.50;;;-7.23;nan
63287;BME280;49410;55.708;37.522;2023-02-19T04:16:53;97689.25;;;-7.31;nan
63287;BME280;49410;55.708;37.522;2023-02-19T04:19:23;97690.41;;;-7.35;nan
63287;BME280;49410;55.708;37.522;2023-02-19T04:21:52;97699.13;;;-7.33;nan
63287;BME280;49410;55.708;37.522;2023-02-19T04:24:23;97704.78;;;-7.38;nan
63287;BME280;49410;55.708;37.522;2023-02-19T04:26:51;97697.13;;;-7.29;nan
63287;BME280;49410;55.708;37.522;2023-02-19T04:29:17;97698.38;;;-7.22;nan
63287;BME280;49410;55.708;37.522;2023-02-19T04:31:42;97698.50;;;-7.24;nan
63287;BME280;49410;55.708;37.522;2023-02-19T04:34:08;97689.16;;;-7.29;nan
63287;BME280;49410;55.708;37.522;2023-02-19T04:36:33;97686.41;;;-7.28;nan
63287;BME280;49410;55.708;37.522;2023-02-19T04:38:59;97683.63;;;-7.26;nan
63287;BME280;49410;55.708;37.522;2023-02-19T04:41:24;97699.88;;;-7.18;nan
63287;BME280;49410;55.708;37.522;2023-02-19T04:43:50;97688.81;;;-7.25;nan
63287;BME280;49410;55.708;37.522;2023-02-19T04:46:15;97704.44;;;-7.20;nan
63287;BME280;49410;55.708;37.522;2023-02-19T04:48:41;97696.59;;;-7.22;nan
63287;BME280;49410;55.708;37.522;2023-02-19T04:51:10;97690.31;;;-7.21;nan
63287;BME280;49410;55.708;37.522;2023-02-19T04:53:36;97699.16;;;-7.07;nan
63287;BME280;49410;55.708;37.522;2023-02-19T04:56:09;97677.88;;;-7.33;nan
63287;BME280;49410;55.708;37.522;2023-02-19T04:58:36;97679.16;;;-7.26;nan
63287;BME280;49410;55.708;37.522;2023-02-19T05:01:01;97680.78;;;-7.23;nan
63287;BME280;49410;55.708;37.522;2023-02-19T05:03:27;97689.13;;;-7.17;nan
63287;BME280;49410;55.708;37.522;2023-02-19T05:05:53;97690.63;;;-7.12;nan
63287;BME280;49410;55.708;37.522;2023-02-19T05:08:18;97670.97;;;-7.23;nan
63287;BME280;49410;55.708;37.522;2023-02-19T05:10:44;97667.59;;;-7.38;nan
63287;BME280;49410;55.708;37.522;2023-02-19T05:13:09;97667.56;;;-7.25;nan
63287;BME280;49410;55.708;37.522;2023-02-19T05:15:35;97686.59;;;-7.18;nan
63287;BME280;49410;55.708;37.522;2023-02-19T05:18:01;97670.66;;;-7.18;nan
63287;BME280;49410;55.708;37.522;2023-02-19T05:20:26;97673.19;;;-7.17;nan
63287;BME280;49410;55.708;37.522;2023-02-19T05:22:52;97677.25;;;-7.24;nan
63287;BME280;49410;55.708;37.522;2023-02-19T05:25:17;97663.00;;;-7.23;nan
63287;BME280;49410;55.708;37.522;2023-02-19T05:27:43;97672.22;;;-7.15;nan
63287;BME280;49410;55.708;37.522;2023-02-19T05:30:09;97664.06;;;-7.12;nan
63287;BME280;49410;55.708;37.522;2023-02-19T05:32:34;97670.63;;;-7.05;nan
63287;BME280;49410;55.708;37.522;2023-02-19T05:35:00;97668.09;;;-7.07;nan
63287;BME280;49410;55.708;37.522;2023-02-19T05:37:26;97641.53;;;-7.20;nan
63287;BME280;49410;55.708;37.522;2023-02-19T05:39:51;97660.34;;;-7.23;nan
63287;BME280;49410;55.708;37.522;2023-02-19T05:42:17;97648.22;;;-7.27;nan
63287;BME280;49410;55.708;37.522;2023-02-19T05:44:42;97648.78;;;-7.22;nan
63287;BME280;49410;55.708;37.522;2023-02-19T05:47:08;97644.38;;;-7.10;nan
63287;BME280;49410;55.708;37.522;2023-02-19T05:49:33;97659.66;;;-7.00;nan
63287;BME280;49410;55.708;37.522;2023-02-19T05:51:59;97661.91;;;-6.94;nan
63287;BME280;49410;55.708;37.522;2023-02-19T05:54:27;97665.19;;;-6.91;nan
63287;BME280;49410;55.708;37.522;2023-02-19T05:56:53;97658.06;;;-6.90;nan
63287;BME280;49410;55.708;37.522;2023-02-19T05:59:21;97663.81;;;-6.96;nan
63287;BME280;49410;55.708;37.522;2023-02-19T06:01:48;97640.56;;;-7.06;nan
63287;BME280;49410;55.708;37.522;2023-02-19T06:04:14;97659.66;;;-7.00;nan
63287;BME280;49410;55.708;37.522;2023-02-19T06:06:40;97661.78;;;-6.93;nan
63287;BME280;49410;55.708;37.522;2023-02-19T06:09:07;97659.13;;;-6.93;nan
63287;BME280;49410;55.708;37.522;2023-02-19T06:11:33;97630.34;;;-6.99;nan
63287;BME280;49410;55.708;37.522;2023-02-19T06:13:59;97648.63;;;-6.94;nan
63287;BME280;49410;55.708;37.522;2023-02-19T06:16:24;97648.50;;;-6.93;nan
63287;BME280;49410;55.708;37.522;2023-02-19T06:18:50;97663.25;;;-6.76;nan
63287;BME280;49410;55.708;37.522;2023-02-19T06:21:16;97639.78;;;-6.95;nan
63287;BME280;49410;55.708;37.522;2023-02-19T06:23:43;97662.25;;;-6.99;nan
63287;BME280;49410;55.708;37.522;2023-02-19T06:26:20;97653.06;;;-6.95;nan
63287;BME280;49410;55.708;37.522;2023-02-19T06:28:47;97638.94;;;-6.95;nan
63287;BME280;49410;55.708;37.522;2023-02-19T06:31:13;97631.94;;;-6.96;nan
63287;BME280;49410;55.708;37.522;2023-02-19T06:33:39;97651.13;;;-6.80;nan
63287;BME280;49410;55.708;37.522;2023-02-19T06:36:08;97648.13;;;-6.75;nan
63287;BME280;49410;55.708;37.522;2023-02-19T06:38:34;97645.72;;;-6.78;nan
63287;BME280;49410;55.708;37.522;2023-02-19T06:41:01;97635.28;;;-6.81;nan
63287;BME280;49410;55.708;37.522;2023-02-19T06:43:27;97644.75;;;-6.77;nan
63287;BME280;49410;55.708;37.522;2023-02-19T06:45:53;97628.19;;;-6.94;nan
63287;BME280;49410;55.708;37.522;2023-02-19T06:48:19;97646.00;;;-6.70;nan
63287;BME280;49410;55.708;37.522;2023-02-19T06:50:44;97632.38;;;-6.65;nan
63287;BME280;49410;55.708;37.522;2023-02-19T06:53:10;97590.22;;;-6.96;nan
63287;BME280;49410;55.708;37.522;2023-02-19T06:55:37;97618.38;;;-6.56;nan
63287;BME280;49410;55.708;37.522;2023-02-19T06:58:05;97633.03;;;-6.50;nan
63287;BME280;49410;55.708;37.522;2023-02-19T07:00:32;97624.03;;;-6.61;nan
63287;BME280;49410;55.708;37.522;2023-02-19T07:02:57;97624.50;;;-6.67;nan
63287;BME280;49410;55.708;37.522;2023-02-19T07:05:23;97601.56;;;-6.81;nan
63287;BME280;49410;55.708;37.522;2023-02-19T07:07:48;97618.72;;;-6.61;nan
63287;BME280;49410;55.708;37.522;2023-02-19T07:10:15;97611.25;;;-6.56;nan
63287;BME280;49410;55.708;37.522;2023-02-19T07:12:40;97609.16;;;-6.39;nan
63287;BME280;49410;55.708;37.522;2023-02-19T07:15:06;97616.06;;;-6.36;nan
63287;BME280;49410;55.708;37.522;2023-02-19T07:17:33;97592.34;;;-6.40;nan
63287;BME280;49410;55.708;37.522;2023-02-19T07:19:58;97606.66;;;-6.29;nan
63287;BME280;49410;55.708;37.522;2023-02-19T07:22:24;97587.25;;;-6.43;nan
63287;BME280;49410;55.708;37.522;2023-02-19T07:24:50;97611.97;;;-6.53;nan
63287;BME280;49410;55.708;37.522;2023-02-19T07:27:15;97586.69;;;-6.59;nan
63287;BME280;49410;55.708;37.522;2023-02-19T07:29:40;97588.13;;;-6.66;nan
63287;BME280;49410;55.708;37.522;2023-02-19T07:32:06;97588.03;;;-6.53;nan
63287;BME280;49410;55.708;37.522;2023-02-19T07:34:31;97598.63;;;-6.41;nan
63287;BME280;49410;55.708;37.522;2023-02-19T07:36:57;97587.22;;;-6.54;nan
63287;BME280;49410;55.708;37.522;2023-02-19T07:39:22;97590.03;;;-6.44;nan
63287;BME280;49410;55.708;37.522;2023-02-19T07:41:48;97594.50;;;-6.45;nan
63287;BME280;49410;55.708;37.522;2023-02-19T07:44:13;97589.63;;;-6.51;nan
63287;BME280;49410;55.708;37.522;2023-02-19T07:46:41;97573.31;;;-6.58;nan
63287;BME280;49410;55.708;37.522;2023-02-19T07:49:07;97590.88;;;-6.44;nan
63287;BME280;49410;55.708;37.522;2023-02-19T07:51:33;97578.31;;;-6.42;nan
63287;BME280;49410;55.708;37.522;2023-02-19T07:53:58;97574.66;;;-6.41;nan
63287;BME280;49410;55.708;37.522;2023-02-19T07:56:24;97581.38;;;-6.24;nan
63287;BME280;49410;55.708;37.522;2023-02-19T07:58:49;97559.34;;;-6.37;nan
63287;BME280;49410;55.708;37.522;2023-02-19T08:01:17;97571.84;;;-6.26;nan
63287;BME280;49410;55.708;37.522;2023-02-19T08:03:43;97571.25;;;-6.18;nan
63287;BME280;49410;55.708;37.522;2023-02-19T08:06:10;97576.19;;;-6.25;nan
63287;BME280;49410;55.708;37.522;2023-02-19T08:08:36;97573.19;;;-6.20;nan
63287;BME280;49410;55.708;37.522;2023-02-19T08:11:03;97570.34;;;-6.06;nan
63287;BME280;49410;55.708;37.522;2023-02-19T08:13:49;97562.41;;;-6.19;nan
63287;BME280;49410;55.708;37.522;2023-02-19T08:16:15;97572.59;;;-6.13;nan
63287;BME280;49410;55.708;37.522;2023-02-19T08:18:42;97572.34;;;-6.21;nan
63287;BME280;49410;55.708;37.522;2023-02-19T08:21:08;97566.44;;;-6.02;nan
63287;BME280;49410;55.708;37.522;2023-02-19T08:23:34;97574.91;;;-6.08;nan
63287;BME280;49410;55.708;37.522;2023-02-19T08:26:00;97559.91;;;-5.98;nan
63287;BME280;49410;55.708;37.522;2023-02-19T08:28:27;97559.78;;;-5.96;nan
63287;BME280;49410;55.708;37.522;2023-02-19T08:31:00;97558.69;;;-6.05;nan
63287;BME280;49410;55.708;37.522;2023-02-19T08:33:27;97557.72;;;-5.93;nan
63287;BME280;49410;55.708;37.522;2023-02-19T08:35:52;97561.38;;;-5.82;nan
63287;BME280;49410;55.708;37.522;2023-02-19T08:38:18;97553.97;;;-5.79;nan
63287;BME280;49410;55.708;37.522;2023-02-19T08:40:43;97543.56;;;-5.93;nan
63287;BME280;49410;55.708;37.522;2023-02-19T08:43:11;97573.34;;;-5.88;nan
63287;BME280;49410;55.708;37.522;2023-02-19T08:45:38;97558.47;;;-5.79;nan
63287;BME280;49410;55.708;37.522;2023-02-19T08:48:04;97557.63;;;-5.80;nan
63287;BME280;49410;55.708;37.522;2023-02-19T08:50:30;97562.94;;;-5.80;nan
63287;BME280;49410;55.708;37.522;2023-02-19T08:52:58;97554.25;;;-5.82;nan
63287;BME280;49410;55.708;37.522;2023-02-19T08:55:23;97546.88;;;-5.78;nan
63287;BME280;49410;55.708;37.522;2023-02-19T08:57:49;97553.97;;;-5.79;nan
63287;BME280;49410;55.708;37.522;2023-02-19T09:00:14;97529.53;;;-5.84;nan
63287;BME280;49410;55.708;37.522;2023-02-19T09:02:40;97531.13;;;-5.70;nan
63287;BME280;49410;55.708;37.522;2023-02-19T09:05:06;97534.16;;;-5.63;nan
63287;BME280;49410;55.708;37.522;2023-02-19T09:07:31;97546.03;;;-5.56;nan
63287;BME280;49410;55.708;37.522;2023-02-19T09:09:57;97536.09;;;-5.54;nan
63287;BME280;49410;55.708;37.522;2023-02-19T09:12:23;97535.84;;;-5.62;nan
63287;BME280;49410;55.708;37.522;2023-02-19T09:14:49;97519.75;;;-5.72;nan
63287;BME280;49410;55.708;37.522;2023-02-19T09:17:14;97544.31;;;-5.68;nan
63287;BME280;49410;55.708;37.522;2023-02-19T09:19:39;97523.13;;;-5.70;nan
63287;BME280;49410;55.708;37.522;2023-02-19T09:22:05;97539.13;;;-5.70;nan
63287;BME280;49410;55.708;37.522;2023-02-19T09:24:31;97522.41;;;-5.72;nan
63287;BME280;49410;55.708;37.522;2023-02-19T09:26:57;97510.06;;;-5.73;nan
63287;BME280;49410;55.708;37.522;2023-02-19T09:29:26;97521.69;;;-5.85;nan
63287;BME280;49410;55.708;37.522;2023-02-19T09:31:55;97507.66;;;-6.10;nan
63287;BME280;49410;55.708;37.522;2023-02-19T09:34:22;97519.25;;;-5.88;nan
63287;BME280;49410;55.708;37.522;2023-02-19T09:36:48;97521.81;;;-5.75;nan
63287;BME280;49410;55.708;37.522;2023-02-19T09:39:14;97499.53;;;-5.86;nan
63287;BME280;49410;55.708;37.522;2023-02-19T09:41:43;97528.00;;;-5.75;nan
63287;BME280;49410;55.708;37.522;2023-02-19T09:44:13;97510.31;;;-5.65;nan
63287;BME280;49410;55.708;37.522;2023-02-19T09:46:45;97503.16;;;-5.64;nan
63287;BME280;49410;55.708;37.522;2023-02-19T09:51:51;97507.63;;;-5.53;nan
63287;BME280;49410;55.708;37.522;2023-02-19T09:54:29;97498.28;;;-5.48;nan
63287;BME280;49410;55.708;37.522;2023-02-19T09:56:58;97489.94;;;-5.43;nan
63287;BME280;49410;55.708;37.522;2023-02-19T09:59:29;97503.09;;;-5.19;nan
63287;BME280;49410;55.708;37.522;2023-02-19T10:02:17;97494.97;;;-5.06;nan
63287;BME280;49410;55.708;37.522;2023-02-19T10:04:44;97477.09;;;-5.26;nan
63287;BME280;49410;55.708;37.522;2023-02-19T10:07:20;97490.19;;;-5.35;nan
63287;BME280;49410;55.708;37.522;2023-02-19T10:09:52;97479.16;;;-5.30;nan
63287;BME280;49410;55.708;37.522;2023-02-19T10:12:24;97490.50;;;-5.17;nan
63287;BME280;49410;55.708;37.522;2023-02-19T10:14:52;97486.88;;;-5.27;nan
63287;BME280;49410;55.708;37.522;2023-02-19T10:17:24;97476.63;;;-5.43;nan
63287;BME280;49410;55.708;37.522;2023-02-19T10:19:51;97482.03;;;-5.22;nan
63287;BME280;49410;55.708;37.522;2023-02-19T10:22:18;97485.31;;;-5.30;nan
63287;BME280;49410;55.708;37.522;2023-02-19T10:24:44;97481.06;;;-5.21;nan
63287;BME280;49410;55.708;37.522;2023-02-19T10:27:14;97490.72;;;-5.08;nan
63287;BME280;49410;55.708;37.522;2023-02-19T10:29:44;97488.66;;;-5.05;nan
63287;BME280;49410;55.708;37.522;2023-02-19T10:32:19;97475.19;;;-5.03;nan
63287;BME280;49410;55.708;37.522;2023-02-19T10:35:06;97485.50;;;-4.99;nan
63287;BME280;49410;55.708;37.522;2023-02-19T10:37:33;97477.28;;;-5.07;nan
63287;BME280;49410;55.708;37.522;2023-02-19T10:39:59;97489.59;;;-4.94;nan
63287;BME280;49410;55.708;37.522;2023-02-19T10:42:25;97491.06;;;-5.02;nan
63287;BME280;49410;55.708;37.522;2023-02-19T10:44:54;97485.63;;;-5.00;nan
63287;BME280;49410;55.708;37.522;2023-02-19T10:47:24;97486.50;;;-5.11;nan
63287;BME280;49410;55.708;37.522;2023-02-19T10:49:52;97475.84;;;-5.22;nan
63287;BME280;49410;55.708;37.522;2023-02-19T10:52:23;97488.97;;;-4.98;nan
63287;BME280;49410;55.708;37.522;2023-02-19T10:57:43;97465.84;;;-4.97;nan
63287;BME280;49410;55.708;37.522;2023-02-19T11:02:41;97466.69;;;-4.64;nan
63287;BME280;49410;55.708;37.522;2023-02-19T11:10:38;97474.19;;;-4.16;nan
63287;BME280;49410;55.708;37.522;2023-02-19T11:13:05;97444.28;;;-4.10;nan
63287;BME280;49410;55.708;37.522;2023-02-19T11:15:32;97466.84;;;-3.93;nan
63287;BME280;49410;55.708;37.522;2023-02-19T11:18:22;97463.22;;;-3.92;nan
63287;BME280;49410;55.708;37.522;2023-02-19T11:20:58;97461.25;;;-3.90;nan
63287;BME280;49410;55.708;37.522;2023-02-19T11:23:46;97444.38;;;-3.90;nan
63287;BME280;49410;55.708;37.522;2023-02-19T11:26:24;97468.56;;;-3.92;nan
63287;BME280;49410;55.708;37.522;2023-02-19T11:28:56;97450.19;;;-4.06;nan
63287;BME280;49410;55.708;37.522;2023-02-19T11:31:24;97456.53;;;-4.07;nan
63287;BME280;49410;55.708;37.522;2023-02-19T11:33:59;97423.22;;;-4.55;nan
63287;BME280;49410;55.708;37.522;2023-02-19T11:36:30;97440.47;;;-4.38;nan
63287;BME280;49410;55.708;37.522;2023-02-19T11:38:58;97454.13;;;-4.53;nan
63287;BME280;49410;55.708;37.522;2023-02-19T11:49:41;97460.97;;;-4.60;nan
63287;BME280;49410;55.708;37.522;2023-02-19T11:54:46;97454.97;;;-4.52;nan
63287;BME280;49410;55.708;37.522;2023-02-19T11:57:30;97459.56;;;-4.43;nan
63287;BME280;49410;55.708;37.522;2023-02-19T12:22:19;97448.31;;;-4.58;nan
63287;BME280;49410;55.708;37.522;2023-02-19T12:40:54;97455.72;;;-5.04;nan
63287;BME280;49410;55.708;37.522;2023-02-19T12:43:24;97453.38;;;-5.08;nan
63287;BME280;49410;55.708;37.522;2023-02-19T12:45:57;97460.00;;;-4.91;nan
63287;BME280;49410;55.708;37.522;2023-02-19T12:48:34;97449.81;;;-4.86;nan
63287;BME280;49410;55.708;37.522;2023-02-19T12:51:11;97458.78;;;-4.87;nan
63287;BME280;49410;55.708;37.522;2023-02-19T12:53:53;97430.72;;;-5.03;nan
63287;BME280;49410;55.708;37.522;2023-02-19T12:56:25;97460.66;;;-4.99;nan
63287;BME280;49410;55.708;37.522;2023-02-19T12:58:57;97447.94;;;-5.07;nan
63287;BME280;49410;55.708;37.522;2023-02-19T13:01:34;97461.63;;;-5.00;nan
63287;BME280;49410;55.708;37.522;2023-02-19T13:04:41;97454.03;;;-5.16;nan
63287;BME280;49410;55.708;37.522;2023-02-19T13:07:13;97464.56;;;-5.15;nan
63287;BME280;49410;55.708;37.522;2023-02-19T13:12:19;97469.13;;;-5.05;nan
63287;BME280;49410;55.708;37.522;2023-02-19T13:14:50;97456.41;;;-5.02;nan
63287;BME280;49410;55.708;37.522;2023-02-19T13:20:00;97460.31;;;-5.06;nan
63287;BME280;49410;55.708;37.522;2023-02-19T13:29:04;97461.81;;;-5.24;nan
63287;BME280;49410;55.708;37.522;2023-02-19T13:37:20;97448.31;;;-5.55;nan
63287;BME280;49410;55.708;37.522;2023-02-19T13:39:54;97453.75;;;-5.57;nan
63287;BME280;49410;55.708;37.522;2023-02-19T13:42:32;97450.34;;;-5.59;nan
63287;BME280;49410;55.708;37.522;2023-02-19T13:44:59;97458.72;;;-5.64;nan
63287;BME280;49410;55.708;37.522;2023-02-19T13:50:19;97453.28;;;-5.62;nan
63287;BME280;49410;55.708;37.522;2023-02-19T13:52:45;97455.81;;;-5.72;nan
63287;BME280;49410;55.708;37.522;2023-02-19T13:55:43;97455.94;;;-5.62;nan
63287;BME280;49410;55.708;37.522;2023-02-19T13:58:37;97459.34;;;-5.60;nan
63287;BME280;49410;55.708;37.522;2023-02-19T14:03:44;97449.06;;;-5.76;nan
63287;BME280;49410;55.708;37.522;2023-02-19T14:06:10;97453.53;;;-5.77;nan
63287;BME280;49410;55.708;37.522;2023-02-19T14:08:56;97439.59;;;-5.69;nan
63287;BME280;49410;55.708;37.522;2023-02-19T14:17:01;97438.03;;;-5.60;nan
63287;BME280;49410;55.708;37.522;2023-02-19T14:30:51;97429.09;;;-5.70;nan
63287;BME280;49410;55.708;37.522;2023-02-19T14:33:30;97432.97;;;-5.74;nan
63287;BME280;49410;55.708;37.522;2023-02-19T14:38:37;97433.69;;;-5.72;nan
63287;BME280;49410;55.708;37.522;2023-02-19T14:41:03;97428.59;;;-5.75;nan
63287;BME280;49410;55.708;37.522;2023-02-19T14:43:32;97427.41;;;-5.71;nan
63287;BME280;49410;55.708;37.522;2023-02-19T14:46:36;97430.44;;;-5.76;nan
63287;BME280;49410;55.708;37.522;2023-02-19T14:49:24;97423.78;;;-5.82;nan
63287;BME280;49410;55.708;37.522;2023-02-19T14:51:56;97413.22;;;-5.83;nan
63287;BME280;49410;55.708;37.522;2023-02-19T14:54:42;97426.91;;;-5.77;nan
63287;BME280;49410;55.708;37.522;2023-02-19T14:57:31;97411.78;;;-5.87;nan
63287;BME280;49410;55.708;37.522;2023-02-19T15:00:03;97408.63;;;-5.93;nan
63287;BME280;49410;55.708;37.522;2023-02-19T15:02:43;97409.13;;;-5.87;nan
63287;BME280;49410;55.708;37.522;2023-02-19T15:05:23;97424.25;;;-5.88;nan
63287;BME280;49410;55.708;37.522;2023-02-19T15:07:50;97431.66;;;-6.03;nan
63287;BME280;49410;55.708;37.522;2023-02-19T15:10:16;97422.13;;;-6.05;nan
63287;BME280;49410;55.708;37.522;2023-02-19T15:12:53;97425.72;;;-5.95;nan
63287;BME280;49410;55.708;37.522;2023-02-19T15:15:29;97401.19;;;-6.10;nan
63287;BME280;49410;55.708;37.522;2023-02-19T15:17:58;97410.00;;;-6.10;nan
63287;BME280;49410;55.708;37.522;2023-02-19T15:20:31;97410.00;;;-6.10;nan
63287;BME280;49410;55.708;37.522;2023-02-19T15:22:58;97417.53;;;-6.03;nan
63287;BME280;49410;55.708;37.522;2023-02-19T15:25:30;97416.56;;;-6.02;nan
63287;BME280;49410;55.708;37.522;2023-02-19T15:30:49;97400.34;;;-6.11;nan
63287;BME280;49410;55.708;37.522;2023-02-19T15:33:19;97396.81;;;-6.11;nan
63287;BME280;49410;55.708;37.522;2023-02-19T15:35:53;97405.53;;;-6.09;nan
63287;BME280;49410;55.708;37.522;2023-02-19T15:38:19;97402.38;;;-6.03;nan
63287;BME280;49410;55.708;37.522;2023-02-19T15:40:47;97391.88;;;-6.04;nan
63287;BME280;49410;55.708;37.522;2023-02-19T15:43:27;97397.19;;;-6.04;nan
63287;BME280;49410;55.708;37.522;2023-02-19T15:45:57;97387.38;;;-6.04;nan
63287;BME280;49410;55.708;37.522;2023-02-19T15:48:33;97397.25;;;-5.95;nan